Time;durP1;ratioP1;P1;durP2;ratioP2;P2;SDS_P1;SDS_P2;PMS_P1;PMS_P2;Temp;Humidity;BMP_temperature;BMP_pressure;BME280_temperature;BME280_humidity;BME280_pressure;Samples;Min_cycle;Max_cycle;Signal;HPM_P1;HPM_P2
2022/03/11 00:01:05;;;;;;;6.22;3.70;;;;;;;-6.94;42.52;101237.44;4809427;29;20109;-83
2022/03/11 00:03:30;;;;;;;6.57;3.60;;;;;;;-6.94;42.46;101247.81;4793805;29;20050;-77
2022/03/11 00:05:55;;;;;;;5.07;3.13;;;;;;;-6.96;42.84;101246.91;4807967;29;20049;-77
2022/03/11 00:08:20;;;;;;;10.45;3.60;;;;;;;-7.00;42.85;101240.75;4810127;29;20048;-77
2022/03/11 00:10:45;;;;;;;7.13;3.17;;;;;;;-7.02;43.10;101239.88;4864118;29;20111;-76
2022/03/11 00:13:09;;;;;;;6.00;3.65;;;;;;;-7.04;43.50;101248.44;4863615;29;20519;-79
2022/03/11 00:15:34;;;;;;;6.80;3.33;;;;;;;-7.06;43.08;101235.44;4848484;29;20427;-79
2022/03/11 00:17:59;;;;;;;5.90;2.92;;;;;;;-7.05;43.92;101236.31;4829249;29;20473;-68
2022/03/11 00:20:25;;;;;;;8.05;3.15;;;;;;;-7.06;43.40;101234.56;4864698;29;20440;-78
2022/03/11 00:22:52;;;;;;;5.88;3.58;;;;;;;-7.08;43.45;101224.13;4878351;29;20051;-74
2022/03/11 00:25:18;;;;;;;8.45;2.70;;;;;;;-7.13;43.28;101233.53;4878698;29;20103;-76
2022/03/11 00:27:43;;;;;;;5.88;3.10;;;;;;;-7.14;43.81;101221.41;4880780;29;20389;-73
2022/03/11 00:30:08;;;;;;;6.20;2.50;;;;;;;-7.18;43.95;101224.75;4884500;29;20147;-72
2022/03/11 00:32:33;;;;;;;7.60;3.40;;;;;;;-7.20;43.68;101225.56;4887660;29;20047;-80
2022/03/11 00:34:58;;;;;;;5.22;3.38;;;;;;;-7.20;43.31;101221.25;4892719;29;20032;-79
2022/03/11 00:37:23;;;;;;;4.72;2.83;;;;;;;-7.24;43.56;101229.78;4890032;29;20048;-78
2022/03/11 00:39:48;;;;;;;7.97;2.85;;;;;;;-7.25;43.45;101229.75;4871482;29;20136;-84
2022/03/11 00:42:13;;;;;;;6.57;3.60;;;;;;;-7.29;44.27;101221.03;4885176;29;20079;-77
2022/03/11 00:44:39;;;;;;;9.32;4.30;;;;;;;-7.34;43.48;101223.50;4884383;29;20103;-76
2022/03/11 00:47:04;;;;;;;10.60;4.53;;;;;;;-7.40;44.00;101227.63;4868225;29;20052;-69
2022/03/11 00:49:29;;;;;;;4.90;3.42;;;;;;;-7.45;43.57;101224.06;4864559;29;20128;-75
2022/03/11 00:51:54;;;;;;;6.55;3.83;;;;;;;-7.59;43.64;101222.81;4883063;29;20150;-73
2022/03/11 00:54:18;;;;;;;5.88;3.85;;;;;;;-7.65;44.07;101225.22;4883781;29;20425;-75
2022/03/11 00:56:43;;;;;;;10.77;4.45;;;;;;;-7.67;43.57;101211.38;4882913;29;20059;-70
2022/03/11 00:59:09;;;;;;;9.25;3.88;;;;;;;-7.73;45.22;101218.13;4883335;29;20448;-67
2022/03/11 01:01:34;;;;;;;7.20;3.25;;;;;;;-7.77;44.37;101205.94;4885850;29;20411;-79
2022/03/11 01:03:59;;;;;;;6.15;3.97;;;;;;;-7.75;44.61;101203.38;4889662;29;21065;-75
2022/03/11 01:06:23;;;;;;;6.60;3.22;;;;;;;-7.77;44.09;101212.81;4892311;29;20048;-73
2022/03/11 01:08:49;;;;;;;7.32;3.38;;;;;;;-7.76;43.86;101206.81;4899826;29;20036;-74
2022/03/11 01:11:13;;;;;;;9.25;3.85;;;;;;;-7.86;44.98;101205.69;4888402;29;20047;-71
2022/03/11 01:13:39;;;;;;;6.68;4.10;;;;;;;-7.99;44.79;101208.75;4883661;29;20040;-75
2022/03/11 01:16:04;;;;;;;8.77;4.22;;;;;;;-8.06;45.60;101207.72;4866894;29;20056;-72
2022/03/11 01:18:29;;;;;;;9.07;3.97;;;;;;;-8.05;44.29;101208.59;4880482;29;20043;-75
2022/03/11 01:20:55;;;;;;;7.72;3.22;;;;;;;-8.13;45.54;101200.63;4877905;29;20810;-75
2022/03/11 01:23:20;;;;;;;10.55;4.35;;;;;;;-8.10;46.00;101205.88;4872281;29;20063;-75
2022/03/11 01:25:45;;;;;;;10.65;4.78;;;;;;;-8.09;45.84;101205.03;4865471;29;20041;-76
2022/03/11 01:28:10;;;;;;;8.20;4.45;;;;;;;-8.08;46.12;101213.69;4864687;29;20052;-74
2022/03/11 01:30:34;;;;;;;7.32;3.00;;;;;;;-8.06;45.30;101206.84;4864831;29;20096;-75
2022/03/11 01:32:59;;;;;;;6.35;3.22;;;;;;;-8.04;45.97;101202.59;4849732;29;20041;-73
2022/03/11 01:35:24;;;;;;;7.05;4.65;;;;;;;-8.03;45.92;101206.06;4867051;29;20040;-72
2022/03/11 01:37:49;;;;;;;9.77;3.78;;;;;;;-8.02;45.15;101200.94;4868033;29;20125;-73
2022/03/11 01:40:13;;;;;;;5.95;3.42;;;;;;;-8.02;45.82;101207.81;4869864;29;20148;-73
2022/03/11 01:42:39;;;;;;;3.88;2.58;;;;;;;-8.03;45.86;101200.91;4868299;29;20048;-76
2022/03/11 01:45:05;;;;;;;8.07;3.78;;;;;;;-8.05;45.59;101203.44;4867356;29;20060;-74
2022/03/11 01:47:30;;;;;;;8.02;4.20;;;;;;;-8.12;45.37;101192.00;4870813;29;20065;-76
2022/03/11 01:49:55;;;;;;;7.95;3.40;;;;;;;-8.17;46.93;101200.50;4866121;29;20143;-78
2022/03/11 01:52:19;;;;;;;8.25;5.55;;;;;;;-8.17;45.92;101193.63;4866126;29;20210;-73
2022/03/11 01:54:45;;;;;;;7.35;3.75;;;;;;;-8.16;46.18;101194.50;4865448;29;20052;-70
2022/03/11 01:57:10;;;;;;;6.20;3.35;;;;;;;-8.16;45.19;101189.31;4871530;29;20512;-73
2022/03/11 01:59:35;;;;;;;5.65;3.35;;;;;;;-8.18;45.56;101191.84;4874274;29;20055;-78
2022/03/11 02:01:59;;;;;;;8.98;3.85;;;;;;;-8.21;45.24;101196.94;4875733;29;20044;-75
2022/03/11 02:04:24;;;;;;;6.70;3.70;;;;;;;-8.24;46.72;101189.06;4872917;29;20060;-73
2022/03/11 02:06:49;;;;;;;12.98;5.63;;;;;;;-8.33;45.71;101190.56;4872596;29;20523;-74
2022/03/11 02:09:14;;;;;;;7.85;4.38;;;;;;;-8.39;45.67;101193.84;4869990;29;20056;-74
2022/03/11 02:11:39;;;;;;;13.55;4.60;;;;;;;-8.49;46.20;101190.13;4858307;29;20306;-73
2022/03/11 02:14:05;;;;;;;10.93;4.88;;;;;;;-8.48;45.91;101191.00;4869220;29;20424;-73
2022/03/11 02:16:31;;;;;;;8.55;3.95;;;;;;;-8.47;46.31;101187.59;4860970;29;20044;-75
2022/03/11 02:18:58;;;;;;;8.80;3.72;;;;;;;-8.52;46.74;101192.63;4861095;29;20060;-77
2022/03/11 02:21:23;;;;;;;8.13;4.18;;;;;;;-8.49;46.20;101186.66;4861903;29;20052;-76
2022/03/11 02:23:51;;;;;;;4.53;3.55;;;;;;;-8.46;46.27;101185.03;4832325;29;20172;-74
2022/03/11 02:26:20;;;;;;;7.20;3.88;;;;;;;-8.46;45.74;101190.19;4867877;29;20060;-78
2022/03/11 02:28:45;;;;;;;6.47;3.20;;;;;;;-8.44;45.25;101193.72;4835986;29;20108;-73
2022/03/11 02:31:10;;;;;;;6.30;3.30;;;;;;;-8.43;45.51;101200.63;4846425;29;20528;-73
2022/03/11 02:33:35;;;;;;;7.75;4.22;;;;;;;-8.45;46.08;101199.72;4846073;29;20524;-75
2022/03/11 02:36:00;;;;;;;10.82;4.00;;;;;;;-8.46;46.13;101204.84;4858824;29;20094;-69
2022/03/11 02:38:24;;;;;;;7.93;3.78;;;;;;;-8.47;45.39;101195.34;4860822;29;20052;-70
2022/03/11 02:40:49;;;;;;;6.95;3.30;;;;;;;-8.48;46.05;101188.41;4857033;29;20048;-72
2022/03/11 02:43:15;;;;;;;5.93;3.20;;;;;;;-8.49;45.61;101184.97;4862543;29;20624;-77
2022/03/11 02:45:40;;;;;;;5.70;3.10;;;;;;;-8.49;46.14;101190.13;4863464;29;20045;-73
2022/03/11 02:48:05;;;;;;;6.15;4.40;;;;;;;-8.51;45.89;101190.91;4863478;29;20120;-74
2022/03/11 02:50:31;;;;;;;6.13;3.13;;;;;;;-8.52;45.47;101181.38;4862900;29;20041;-73
2022/03/11 02:52:56;;;;;;;6.82;3.72;;;;;;;-8.53;45.33;101182.22;4846863;29;20123;-63
2022/03/11 02:55:21;;;;;;;11.68;3.92;;;;;;;-8.55;46.30;101178.72;4862024;29;20044;-69
2022/03/11 02:57:46;;;;;;;5.93;3.35;;;;;;;-8.58;45.98;101176.94;4876959;29;20422;-69
2022/03/11 03:00:11;;;;;;;11.27;3.83;;;;;;;-8.61;45.78;101184.59;4861157;29;20045;-68
2022/03/11 03:02:36;;;;;;;6.30;3.97;;;;;;;-8.68;46.71;101182.63;4892317;29;20056;-72
2022/03/11 03:05:01;;;;;;;6.95;3.80;;;;;;;-8.69;46.55;101180.88;4862779;29;20059;-72
2022/03/11 03:07:28;;;;;;;7.90;3.53;;;;;;;-8.69;45.89;101178.28;4865486;29;20056;-72
2022/03/11 03:09:52;;;;;;;9.00;4.35;;;;;;;-8.71;46.40;101169.63;4869342;29;20045;-72
2022/03/11 03:12:17;;;;;;;13.15;4.55;;;;;;;-8.73;45.82;101167.84;4868067;29;20044;-71
2022/03/11 03:14:42;;;;;;;9.77;4.50;;;;;;;-8.74;46.32;101171.25;4867072;29;20048;-75
2022/03/11 03:17:07;;;;;;;6.88;3.17;;;;;;;-8.75;46.19;101164.31;4870436;29;20505;-73
2022/03/11 03:19:31;;;;;;;6.35;3.40;;;;;;;-8.81;46.21;101162.44;4880112;29;20043;-71
2022/03/11 03:21:56;;;;;;;9.20;4.63;;;;;;;-8.96;47.28;101155.09;4881065;29;20071;-73
2022/03/11 03:24:21;;;;;;;8.60;4.38;;;;;;;-8.98;47.14;101161.03;4895227;29;20048;-74
2022/03/11 03:26:46;;;;;;;10.85;4.00;;;;;;;-9.00;46.94;101157.50;4879566;29;20055;-75
2022/03/11 03:29:11;;;;;;;8.90;4.00;;;;;;;-9.00;47.08;101155.81;4863788;29;20039;-74
2022/03/11 03:31:36;;;;;;;9.80;4.60;;;;;;;-9.01;47.01;101150.59;4880155;29;20106;-75
2022/03/11 03:34:00;;;;;;;8.98;3.80;;;;;;;-9.00;46.50;101150.63;4847259;29;20107;-75
2022/03/11 03:36:25;;;;;;;5.80;3.70;;;;;;;-8.99;46.61;101148.94;4880280;29;20075;-75
2022/03/11 03:38:50;;;;;;;7.18;3.08;;;;;;;-8.99;46.71;101154.09;4879936;29;20102;-74
2022/03/11 03:41:14;;;;;;;8.23;3.92;;;;;;;-8.97;46.66;101152.44;4878873;29;20052;-75
2022/03/11 03:43:39;;;;;;;9.52;4.32;;;;;;;-8.97;46.86;101144.69;4880203;29;20051;-75
2022/03/11 03:46:06;;;;;;;6.95;3.92;;;;;;;-8.96;46.35;101149.03;4863072;29;20062;-75
2022/03/11 03:48:31;;;;;;;7.60;3.83;;;;;;;-8.95;46.48;101156.84;4878590;29;20047;-74
2022/03/11 03:50:56;;;;;;;6.45;3.72;;;;;;;-8.95;46.72;101143.03;4880139;29;20067;-73
2022/03/11 03:53:20;;;;;;;8.73;4.35;;;;;;;-8.95;45.77;101143.91;4878568;29;20047;-75
2022/03/11 03:55:45;;;;;;;6.28;3.97;;;;;;;-8.94;46.08;101142.22;4878865;29;20071;-76
2022/03/11 03:58:15;;;;;;;6.57;3.70;;;;;;;-8.93;46.71;101150.03;4880250;29;20048;-74
2022/03/11 04:00:40;;;;;;;8.18;4.03;;;;;;;-8.90;46.55;101136.28;4879775;29;20103;-73
2022/03/11 04:03:05;;;;;;;7.30;3.47;;;;;;;-8.90;46.28;101138.88;4878581;29;20044;-73
2022/03/11 04:05:30;;;;;;;7.53;3.42;;;;;;;-8.89;46.24;101133.75;4879159;29;20180;-78
2022/03/11 04:07:56;;;;;;;6.40;3.38;;;;;;;-8.86;45.96;101132.97;4883003;29;20084;-77
2022/03/11 04:10:21;;;;;;;5.43;3.70;;;;;;;-8.84;45.91;101131.31;4884137;29;20088;-77
2022/03/11 04:12:46;;;;;;;9.55;4.32;;;;;;;-8.82;47.21;101132.25;4884545;29;20048;-78
2022/03/11 04:15:11;;;;;;;14.48;5.10;;;;;;;-8.71;47.72;101130.88;4882771;29;20043;-77
2022/03/11 04:17:36;;;;;;;9.27;4.85;;;;;;;-8.55;46.92;101129.59;4883229;29;20047;-77
2022/03/11 04:20:01;;;;;;;11.68;4.95;;;;;;;-8.41;46.93;101125.69;4883079;29;20071;-78
2022/03/11 04:22:27;;;;;;;11.30;5.00;;;;;;;-8.30;47.37;101131.13;4887026;29;20092;-77
2022/03/11 04:24:52;;;;;;;7.30;4.03;;;;;;;-8.19;46.59;101129.72;4895957;29;20048;-77
2022/03/11 04:27:17;;;;;;;9.88;3.97;;;;;;;-8.03;45.93;101126.72;4897288;29;20043;-76
2022/03/11 04:29:44;;;;;;;9.15;4.90;;;;;;;-7.82;46.39;101114.34;4894024;29;20460;-77
2022/03/11 04:32:09;;;;;;;8.27;3.70;;;;;;;-7.53;46.00;101114.19;4882918;29;20040;-78
2022/03/11 04:34:35;;;;;;;14.02;5.90;;;;;;;-7.24;45.41;101109.75;4882681;29;20048;-77
2022/03/11 04:37:00;;;;;;;13.00;4.63;;;;;;;-6.84;45.24;101111.50;4883777;29;20593;-77
2022/03/11 04:39:26;;;;;;;8.80;4.95;;;;;;;-6.47;44.32;101114.06;4883881;29;20040;-78
2022/03/11 04:41:53;;;;;;;8.38;4.13;;;;;;;-6.09;43.28;101112.19;4882468;29;20040;-78
2022/03/11 04:44:17;;;;;;;10.50;5.43;;;;;;;-5.83;41.54;101110.06;4883835;29;20046;-77
2022/03/11 04:46:42;;;;;;;6.93;3.97;;;;;;;-5.58;41.45;101108.78;4882407;29;20048;-73
2022/03/11 04:49:07;;;;;;;5.85;3.70;;;;;;;-5.29;40.57;101114.44;4883420;29;20631;-73
2022/03/11 04:51:32;;;;;;;9.95;4.93;;;;;;;-5.04;40.22;101113.97;4883364;29;20498;-73
2022/03/11 04:53:58;;;;;;;7.70;4.13;;;;;;;-4.78;39.91;101104.81;4866823;29;20055;-73
2022/03/11 04:56:23;;;;;;;8.80;4.03;;;;;;;-4.56;38.96;101112.91;4850728;29;20052;-72
2022/03/11 04:58:48;;;;;;;11.20;4.30;;;;;;;-4.38;38.33;101103.59;4883276;29;20053;-72
2022/03/11 05:01:13;;;;;;;8.20;4.38;;;;;;;-4.09;37.91;101105.69;4850989;29;20044;-73
2022/03/11 05:03:38;;;;;;;14.02;6.25;;;;;;;-3.86;37.49;101099.00;4882987;29;20056;-71
2022/03/11 05:06:02;;;;;;;8.38;4.55;;;;;;;-3.56;37.04;101101.00;4884340;29;20051;-73
2022/03/11 05:08:27;;;;;;;9.07;5.47;;;;;;;-3.21;37.20;101095.22;4881366;29;20050;-73
2022/03/11 05:10:52;;;;;;;11.32;4.60;;;;;;;-2.86;36.97;101098.06;4883274;29;20175;-72
2022/03/11 05:13:17;;;;;;;8.15;4.20;;;;;;;-2.51;35.19;101088.69;4883268;29;20111;-74
2022/03/11 05:15:42;;;;;;;12.75;5.57;;;;;;;-2.21;34.87;101087.91;4883123;29;20043;-73
2022/03/11 05:18:08;;;;;;;10.18;5.80;;;;;;;-1.93;33.93;101081.03;4880948;29;20048;-74
2022/03/11 05:20:32;;;;;;;9.95;5.20;;;;;;;-1.63;33.81;101085.44;4882771;29;20042;-74
2022/03/11 05:22:57;;;;;;;7.15;4.50;;;;;;;-1.35;33.72;101079.34;4882268;29;20048;-74
2022/03/11 05:25:23;;;;;;;13.90;5.50;;;;;;;-1.17;32.29;101087.19;4865528;29;20051;-74
2022/03/11 05:27:48;;;;;;;11.82;5.60;;;;;;;-0.85;32.05;101087.13;4882495;29;20047;-78
2022/03/11 05:30:13;;;;;;;15.10;5.70;;;;;;;-0.59;31.06;101078.34;4882565;29;20052;-78
2022/03/11 05:32:46;;;;;;;12.35;6.25;;;;;;;-0.35;30.69;101087.88;4882605;29;20400;-77
2022/03/11 05:35:11;;;;;;;11.50;5.80;;;;;;;-0.10;30.74;101073.75;4882627;29;20044;-76
2022/03/11 05:37:39;;;;;;;13.82;6.20;;;;;;;0.32;29.72;101070.88;4883032;29;20051;-77
2022/03/11 05:40:04;;;;;;;13.38;5.50;;;;;;;0.87;29.34;101073.06;4882499;29;20091;-72
2022/03/11 05:42:29;;;;;;;10.18;5.57;;;;;;;1.49;28.53;101066.25;4882580;29;20526;-77
2022/03/11 05:44:55;;;;;;;12.13;6.07;;;;;;;2.06;27.49;101066.41;4882676;29;20048;-77
2022/03/11 05:47:20;;;;;;;13.43;5.60;;;;;;;2.45;27.55;101057.94;4882132;29;20055;-78
2022/03/11 05:49:44;;;;;;;14.18;5.25;;;;;;;2.71;27.05;101060.13;4882939;29;20183;-76
2022/03/11 05:52:09;;;;;;;10.57;6.07;;;;;;;2.99;26.69;101057.88;4882635;29;20060;-76
2022/03/11 05:54:34;;;;;;;14.85;6.18;;;;;;;3.40;25.58;101046.56;4881337;29;20047;-76
2022/03/11 05:57:02;;;;;;;12.48;6.80;;;;;;;3.69;25.16;101045.09;4881351;29;20056;-77
2022/03/11 05:59:29;;;;;;;14.65;5.78;;;;;;;3.92;25.35;101045.47;4880462;29;20048;-76
2022/03/11 06:01:53;;;;;;;11.85;6.40;;;;;;;4.25;24.34;101041.22;4882384;29;20052;-76
2022/03/11 06:04:18;;;;;;;10.68;4.93;;;;;;;4.55;24.73;101043.13;4880835;29;20054;-76
2022/03/11 06:06:43;;;;;;;12.63;5.57;;;;;;;5.02;23.58;101046.31;4865848;29;20066;-80
2022/03/11 06:09:08;;;;;;;12.70;5.95;;;;;;;5.43;23.29;101046.06;4881024;29;20499;-77
2022/03/11 06:11:33;;;;;;;11.95;5.03;;;;;;;5.80;23.18;101039.72;4898911;29;20044;-78
2022/03/11 06:13:58;;;;;;;19.35;6.43;;;;;;;6.22;22.54;101036.69;4881633;29;20040;-79
2022/03/11 06:16:23;;;;;;;16.42;7.18;;;;;;;6.30;21.96;101030.25;4881972;29;20044;-74
2022/03/11 06:18:47;;;;;;;15.07;6.53;;;;;;;6.31;22.24;101033.78;4881732;29;20506;-74
2022/03/11 06:21:12;;;;;;;18.60;7.38;;;;;;;6.62;22.41;101034.50;4881425;29;20052;-73
2022/03/11 06:23:37;;;;;;;12.93;7.45;;;;;;;7.06;21.65;101024.19;4880523;29;20044;-74
2022/03/11 06:26:03;;;;;;;16.88;6.60;;;;;;;7.48;21.69;101021.75;4880107;29;20055;-76
2022/03/11 06:28:28;;;;;;;11.25;6.35;;;;;;;8.15;20.24;101014.75;4881335;29;20499;-75
2022/03/11 06:30:53;;;;;;;14.80;5.88;;;;;;;9.03;19.55;101021.72;4880590;29;20523;-79
2022/03/11 06:33:20;;;;;;;13.27;6.72;;;;;;;9.86;19.00;101015.34;4880788;29;20131;-78
2022/03/11 06:35:45;;;;;;;14.20;6.55;;;;;;;10.34;18.05;101010.38;4881060;29;20052;-77
2022/03/11 06:38:10;;;;;;;15.70;7.88;;;;;;;11.00;17.64;101017.75;4881719;29;20051;-77
2022/03/11 06:40:34;;;;;;;16.90;7.85;;;;;;;11.63;16.61;101010.81;4881033;29;20062;-77
2022/03/11 06:43:00;;;;;;;12.50;7.90;;;;;;;12.36;17.23;101009.44;4882176;29;20047;-79
2022/03/11 06:45:24;;;;;;;12.65;6.45;;;;;;;13.10;16.38;100994.31;4881867;29;20410;-77
2022/03/11 06:47:51;;;;;;;18.55;8.68;;;;;;;13.69;16.45;100991.63;4881489;29;20054;-78
2022/03/11 06:50:18;;;;;;;22.17;6.82;;;;;;;14.18;16.55;100992.91;4881058;29;20044;-74
2022/03/11 06:52:43;;;;;;;20.17;8.05;;;;;;;14.43;16.14;101002.06;4881303;29;20075;-76
2022/03/11 06:55:09;;;;;;;19.58;7.80;;;;;;;14.71;15.87;100987.66;4864277;29;20046;-78
2022/03/11 06:57:34;;;;;;;9.43;6.88;;;;;;;14.67;15.15;100989.66;4911780;29;20166;-77
2022/03/11 06:59:59;;;;;;;14.88;7.00;;;;;;;14.81;14.90;100988.75;4879699;29;20134;-78
2022/03/11 07:02:23;;;;;;;14.68;6.32;;;;;;;15.06;15.12;100996.00;4881349;29;20414;-78
2022/03/11 07:04:48;;;;;;;15.75;7.60;;;;;;;15.53;14.40;100984.63;4881808;29;20044;-76
2022/03/11 07:07:13;;;;;;;11.27;6.55;;;;;;;16.24;14.00;100987.53;4880355;29;20052;-78
2022/03/11 07:09:38;;;;;;;11.10;6.97;;;;;;;16.67;13.30;100978.97;4881087;29;20403;-78
2022/03/11 07:12:03;;;;;;;15.13;7.05;;;;;;;17.11;13.19;100966.63;4881283;29;20048;-79
2022/03/11 07:14:29;;;;;;;21.75;9.40;;;;;;;16.89;13.05;100965.59;4881530;29;20135;-79
2022/03/11 07:16:56;;;;;;;16.23;7.53;;;;;;;16.10;13.51;100966.16;4881122;29;20107;-79
2022/03/11 07:19:21;;;;;;;20.20;7.80;;;;;;;15.80;13.56;100958.47;4881137;29;20048;-78
2022/03/11 07:21:46;;;;;;;21.45;8.88;;;;;;;16.29;13.54;100962.97;4879755;29;20063;-79
2022/03/11 07:24:10;;;;;;;12.70;7.20;;;;;;;17.04;13.23;100966.25;4880124;29;20087;-80
2022/03/11 07:26:35;;;;;;;16.15;8.60;;;;;;;17.46;12.34;100959.34;4879561;29;20116;-79
2022/03/11 07:29:02;;;;;;;16.77;8.15;;;;;;;17.90;12.56;100957.63;4881453;29;20047;-79
2022/03/11 07:31:27;;;;;;;15.00;8.38;;;;;;;17.88;12.61;100949.66;4880693;29;20068;-78
2022/03/11 07:33:52;;;;;;;11.52;6.68;;;;;;;17.34;12.43;100949.53;4848219;29;20504;-79
2022/03/11 07:36:17;;;;;;;16.17;6.30;;;;;;;17.73;12.58;100950.91;4895025;29;20503;-79
2022/03/11 07:38:42;;;;;;;11.98;5.82;;;;;;;18.67;11.87;100953.03;4864287;29;20055;-79
2022/03/11 07:41:10;;;;;;;11.82;5.72;;;;;;;19.67;11.48;100941.59;4896048;29;20048;-80
2022/03/11 07:43:35;;;;;;;15.52;6.25;;;;;;;20.60;11.55;100947.53;4850730;29;20068;-79
2022/03/11 07:46:00;;;;;;;8.20;5.53;;;;;;;20.79;11.20;100943.94;4898363;29;20549;-77
2022/03/11 07:48:25;;;;;;;18.35;6.35;;;;;;;20.19;11.27;100936.91;4864962;29;20411;-79
2022/03/11 07:50:49;;;;;;;13.45;5.93;;;;;;;19.45;11.45;100937.19;4880338;29;20134;-78
2022/03/11 07:53:14;;;;;;;9.15;5.95;;;;;;;18.49;11.66;100942.78;4864357;29;20047;-76
2022/03/11 07:55:39;;;;;;;12.45;5.13;;;;;;;17.27;11.85;100932.09;4849035;29;20062;-79
2022/03/11 07:58:05;;;;;;;15.05;5.78;;;;;;;16.38;12.57;100924.59;4878997;29;20529;-76
2022/03/11 08:00:30;;;;;;;17.73;6.13;;;;;;;16.27;12.75;100924.53;4880761;29;20563;-75
2022/03/11 08:02:55;;;;;;;10.73;5.75;;;;;;;15.81;12.97;100930.63;4880664;29;20051;-77
2022/03/11 08:05:20;;;;;;;11.45;5.57;;;;;;;15.47;13.45;100926.78;4880470;29;20491;-78
2022/03/11 08:07:49;;;;;;;15.43;6.20;;;;;;;15.04;13.74;100930.78;4880700;29;20450;-76
2022/03/11 08:10:15;;;;;;;13.20;5.97;;;;;;;14.67;14.10;100922.56;4881080;29;20078;-76
2022/03/11 08:12:40;;;;;;;14.48;6.60;;;;;;;14.60;13.68;100909.69;4880579;29;20052;-77
2022/03/11 08:15:06;;;;;;;11.10;5.82;;;;;;;14.81;13.86;100909.06;4863518;29;20048;-76
2022/03/11 08:17:30;;;;;;;14.00;5.82;;;;;;;15.21;13.99;100903.63;4879531;29;20047;-77
2022/03/11 08:19:55;;;;;;;12.85;5.38;;;;;;;16.04;13.54;100902.03;4879917;29;20040;-76
2022/03/11 08:22:22;;;;;;;12.85;6.43;;;;;;;16.88;12.80;100907.31;4881540;29;20051;-75
2022/03/11 08:24:47;;;;;;;14.10;6.90;;;;;;;17.71;12.26;100905.19;4879989;29;20055;-79
2022/03/11 08:27:12;;;;;;;14.13;6.40;;;;;;;18.54;12.22;100898.31;4878965;29;20047;-76
2022/03/11 08:29:37;;;;;;;16.23;6.78;;;;;;;19.07;11.57;100896.44;4847210;29;20036;-77
2022/03/11 08:32:03;;;;;;;16.35;6.63;;;;;;;19.39;11.25;100901.72;4879742;29;20048;-78
2022/03/11 08:34:28;;;;;;;14.70;7.53;;;;;;;20.07;11.70;100902.84;4848180;29;20092;-77
2022/03/11 08:36:53;;;;;;;16.30;7.03;;;;;;;21.43;10.46;100894.47;4894406;29;20075;-78
2022/03/11 08:39:18;;;;;;;13.32;7.85;;;;;;;22.99;9.57;100893.25;4863089;29;20044;-78
2022/03/11 08:41:42;;;;;;;13.18;8.52;;;;;;;23.95;9.10;100892.06;4879029;29;20044;-77
2022/03/11 08:44:07;;;;;;;16.13;8.55;;;;;;;24.65;9.40;100886.25;4880246;29;20040;-77
2022/03/11 08:46:32;;;;;;;14.65;8.60;;;;;;;24.99;8.88;100883.34;4879302;29;20542;-79
2022/03/11 08:48:57;;;;;;;15.02;9.48;;;;;;;25.26;8.25;100872.91;4879374;29;20040;-78
2022/03/11 08:51:22;;;;;;;13.88;8.40;;;;;;;25.75;7.95;100869.16;4895647;29;20040;-77
2022/03/11 08:53:48;;;;;;;12.25;8.13;;;;;;;25.88;8.24;100880.34;4881556;29;20056;-78
2022/03/11 08:56:15;;;;;;;14.07;8.50;;;;;;;26.45;7.50;100875.41;4884133;29;20516;-78
2022/03/11 08:58:40;;;;;;;11.82;9.20;;;;;;;26.88;7.68;100873.84;4883777;29;20051;-78
2022/03/11 09:01:05;;;;;;;19.33;9.43;;;;;;;26.67;7.28;100876.44;4898646;29;20047;-78
2022/03/11 09:03:29;;;;;;;13.68;9.35;;;;;;;26.79;7.34;100874.09;4882263;29;20043;-77
2022/03/11 09:05:54;;;;;;;11.63;8.52;;;;;;;26.96;7.25;100871.09;4866798;29;20047;-77
2022/03/11 09:08:19;;;;;;;11.50;7.57;;;;;;;27.52;7.10;100867.91;4883337;29;20175;-77
2022/03/11 09:10:43;;;;;;;9.30;6.90;;;;;;;27.35;6.51;100870.81;4882961;29;20055;-76
2022/03/11 09:13:08;;;;;;;10.40;7.38;;;;;;;27.22;6.64;100875.25;4885437;29;20047;-76
2022/03/11 09:15:33;;;;;;;9.32;6.47;;;;;;;27.18;6.49;100860.25;4886275;29;20529;-76
2022/03/11 09:17:58;;;;;;;10.10;5.97;;;;;;;27.54;6.41;100860.34;4884158;29;20048;-77
2022/03/11 09:20:24;;;;;;;12.23;6.00;;;;;;;28.09;6.46;100868.03;4882827;29;20521;-78
2022/03/11 09:22:49;;;;;;;8.18;5.30;;;;;;;28.63;6.25;100860.16;4881930;29;20059;-79
2022/03/11 09:25:16;;;;;;;6.25;4.70;;;;;;;28.10;5.79;100847.78;4883303;29;20047;-79
2022/03/11 09:27:41;;;;;;;9.63;5.40;;;;;;;27.26;5.69;100844.56;4883310;29;20504;-78
2022/03/11 09:30:07;;;;;;;9.38;5.85;;;;;;;26.57;5.78;100843.00;4883746;29;20451;-78
2022/03/11 09:32:32;;;;;;;11.25;5.55;;;;;;;24.43;6.71;100838.69;4881956;29;20048;-79
2022/03/11 09:34:59;;;;;;;16.50;6.38;;;;;;;25.08;6.78;100833.19;4882685;29;20074;-76
2022/03/11 09:37:24;;;;;;;11.57;5.10;;;;;;;26.11;6.55;100832.06;4882693;29;20080;-79
2022/03/11 09:39:49;;;;;;;6.35;5.10;;;;;;;25.95;6.41;100843.09;4898316;29;20419;-80
2022/03/11 09:42:14;;;;;;;10.40;5.50;;;;;;;26.33;6.46;100825.78;4866483;29;20412;-80
2022/03/11 09:44:40;;;;;;;8.23;5.38;;;;;;;25.41;6.36;100829.31;4882886;29;20143;-81
2022/03/11 09:47:06;;;;;;;6.85;4.68;;;;;;;25.64;6.38;100822.09;4868066;29;20503;-81
2022/03/11 09:49:35;;;;;;;7.97;4.72;;;;;;;26.38;6.33;100817.03;4868214;29;20048;-81
2022/03/11 09:52:00;;;;;;;8.82;4.80;;;;;;;26.78;6.40;100821.28;4851758;29;20507;-81
2022/03/11 09:54:25;;;;;;;8.10;4.50;;;;;;;26.99;6.13;100815.09;4867299;29;20044;-81
2022/03/11 09:56:50;;;;;;;7.45;4.28;;;;;;;27.19;5.96;100804.47;4867399;29;20111;-80
2022/03/11 09:59:15;;;;;;;6.50;4.18;;;;;;;27.70;5.54;100808.09;4883707;29;20059;-80
2022/03/11 10:01:41;;;;;;;6.68;3.90;;;;;;;27.62;5.58;100802.72;4851903;29;20040;-81
2022/03/11 10:04:07;;;;;;;6.03;4.13;;;;;;;26.76;5.84;100798.72;4897958;29;20054;-78
2022/03/11 10:06:43;;;;;;;7.43;4.38;;;;;;;25.29;6.00;100792.50;4881837;29;20044;-82
2022/03/11 10:09:17;;;;;;;5.80;4.18;;;;;;;25.55;5.84;100795.81;4914269;29;20050;-82
2022/03/11 10:11:42;;;;;;;4.90;4.07;;;;;;;25.16;6.49;100784.06;4882610;29;20572;-77
2022/03/11 10:14:08;;;;;;;8.35;3.63;;;;;;;24.73;6.22;100788.91;4881035;29;20579;-78
2022/03/11 10:16:33;;;;;;;4.55;3.72;;;;;;;24.34;6.55;100779.75;4881468;29;20040;-80
2022/03/11 10:19:07;;;;;;;3.97;3.38;;;;;;;23.29;7.18;100781.19;4913232;29;20870;-80
2022/03/11 10:21:48;;;;;;;4.43;3.45;;;;;;;22.39;7.14;100779.78;4882435;29;20047;-79
2022/03/11 10:24:21;;;;;;;6.40;3.58;;;;;;;22.67;7.30;100772.34;4880693;29;20507;-78
2022/03/11 10:26:48;;;;;;;15.95;4.15;;;;;;;22.48;7.45;100761.66;4849151;29;20414;-76
2022/03/11 10:29:25;;;;;;;8.52;4.57;;;;;;;20.99;7.63;100755.03;4912654;29;20099;-79
2022/03/11 10:31:52;;;;;;;6.88;4.20;;;;;;;18.53;8.83;100751.59;4827511;29;20104;-74
2022/03/11 10:34:26;;;;;;;6.43;3.25;;;;;;;16.49;10.07;100746.97;4826946;29;20051;-74
2022/03/11 10:37:01;;;;;;;4.35;3.35;;;;;;;14.71;10.75;100744.25;4842632;29;20036;-75
2022/03/11 10:39:38;;;;;;;12.10;4.00;;;;;;;12.51;11.45;100749.13;4843728;29;20567;-74
2022/03/11 10:42:12;;;;;;;7.90;3.17;;;;;;;11.41;13.10;100744.09;4827643;29;20045;-73
2022/03/11 10:44:37;;;;;;;7.03;3.55;;;;;;;10.28;13.61;100733.47;4827087;29;20616;-75
2022/03/11 10:47:20;;;;;;;8.02;3.13;;;;;;;9.43;14.18;100746.69;4827436;29;20049;-75
2022/03/11 10:49:53;;;;;;;5.75;3.40;;;;;;;8.01;14.91;100746.22;4842770;29;20037;-75
2022/03/11 10:52:30;;;;;;;5.03;3.33;;;;;;;6.87;15.63;100741.19;4842641;29;20045;-75
2022/03/11 10:54:54;;;;;;;9.43;3.47;;;;;;;6.49;16.15;100740.00;4844806;29;20049;-74
2022/03/11 10:57:21;;;;;;;6.40;3.85;;;;;;;6.40;16.10;100739.47;4844862;29;20128;-76
2022/03/11 10:59:45;;;;;;;9.30;3.17;;;;;;;6.12;16.50;100732.53;4843663;29;20501;-76
2022/03/11 11:02:11;;;;;;;9.95;3.85;;;;;;;5.75;17.27;100730.28;4843442;29;20564;-76
2022/03/11 11:04:37;;;;;;;4.93;3.30;;;;;;;5.04;17.36;100722.09;4842044;29;20044;-76
2022/03/11 11:07:05;;;;;;;6.80;3.45;;;;;;;4.72;18.72;100723.94;4842600;29;20113;-76
2022/03/11 11:09:30;;;;;;;6.47;3.25;;;;;;;4.60;17.95;100716.38;4844366;29;20049;-73
2022/03/11 11:11:55;;;;;;;5.53;3.40;;;;;;;4.58;18.53;100726.13;4843524;29;20206;-73
2022/03/11 11:14:19;;;;;;;5.45;3.35;;;;;;;4.43;19.25;100709.84;4843884;29;20045;-74
2022/03/11 11:16:46;;;;;;;8.55;3.70;;;;;;;4.30;19.42;100701.44;4841110;29;20478;-75